sensor_id;sensor_type;location;lat;lon;timestamp;P1;durP1;ratioP1;P2;durP2;ratioP2
12956;SDS011;6543;48.836;10.092;2023-11-19T00:00:43;9.50;;;7.20;;
12956;SDS011;6543;48.836;10.092;2023-11-19T00:03:10;7.57;;;6.53;;
12956;SDS011;6543;48.836;10.092;2023-11-19T00:05:38;6.67;;;5.53;;
12956;SDS011;6543;48.836;10.092;2023-11-19T00:08:06;8.07;;;6.43;;
12956;SDS011;6543;48.836;10.092;2023-11-19T00:10:33;9.20;;;7.67;;
12956;SDS011;6543;48.836;10.092;2023-11-19T00:13:00;8.27;;;6.90;;
12956;SDS011;6543;48.836;10.092;2023-11-19T00:15:28;7.70;;;6.53;;
12956;SDS011;6543;48.836;10.092;2023-11-19T00:17:55;8.10;;;6.20;;
12956;SDS011;6543;48.836;10.092;2023-11-19T00:20:21;6.63;;;5.97;;
12956;SDS011;6543;48.836;10.092;2023-11-19T00:22:48;7.50;;;6.00;;
12956;SDS011;6543;48.836;10.092;2023-11-19T00:25:18;6.53;;;5.90;;
12956;SDS011;6543;48.836;10.092;2023-11-19T00:27:46;30.13;;;18.97;;
12956;SDS011;6543;48.836;10.092;2023-11-19T00:30:13;14.93;;;9.27;;
12956;SDS011;6543;48.836;10.092;2023-11-19T00:32:41;6.60;;;5.77;;
12956;SDS011;6543;48.836;10.092;2023-11-19T00:35:09;6.47;;;5.87;;
12956;SDS011;6543;48.836;10.092;2023-11-19T00:37:36;7.57;;;6.17;;
12956;SDS011;6543;48.836;10.092;2023-11-19T00:40:03;10.17;;;7.50;;
12956;SDS011;6543;48.836;10.092;2023-11-19T00:42:32;6.17;;;4.77;;
12956;SDS011;6543;48.836;10.092;2023-11-19T00:44:59;6.80;;;5.20;;
12956;SDS011;6543;48.836;10.092;2023-11-19T00:47:26;8.00;;;5.37;;
12956;SDS011;6543;48.836;10.092;2023-11-19T00:49:53;7.43;;;5.47;;
12956;SDS011;6543;48.836;10.092;2023-11-19T00:52:20;4.90;;;4.43;;
12956;SDS011;6543;48.836;10.092;2023-11-19T00:54:47;8.60;;;6.73;;
12956;SDS011;6543;48.836;10.092;2023-11-19T00:57:14;14.33;;;11.00;;
12956;SDS011;6543;48.836;10.092;2023-11-19T00:59:42;7.40;;;5.43;;
12956;SDS011;6543;48.836;10.092;2023-11-19T01:02:09;6.83;;;5.10;;
12956;SDS011;6543;48.836;10.092;2023-11-19T01:04:36;6.40;;;5.33;;
12956;SDS011;6543;48.836;10.092;2023-11-19T01:07:03;5.10;;;4.60;;
12956;SDS011;6543;48.836;10.092;2023-11-19T01:09:31;9.20;;;7.40;;
12956;SDS011;6543;48.836;10.092;2023-11-19T01:11:59;5.57;;;4.97;;
12956;SDS011;6543;48.836;10.092;2023-11-19T01:14:26;5.43;;;4.90;;
12956;SDS011;6543;48.836;10.092;2023-11-19T01:16:54;4.90;;;4.43;;
12956;SDS011;6543;48.836;10.092;2023-11-19T01:19:21;5.00;;;4.43;;
12956;SDS011;6543;48.836;10.092;2023-11-19T01:21:49;11.97;;;8.83;;
12956;SDS011;6543;48.836;10.092;2023-11-19T01:24:16;8.53;;;5.03;;
12956;SDS011;6543;48.836;10.092;2023-11-19T01:26:43;6.43;;;4.77;;
12956;SDS011;6543;48.836;10.092;2023-11-19T01:29:10;5.53;;;4.67;;
12956;SDS011;6543;48.836;10.092;2023-11-19T01:31:38;5.57;;;4.60;;
12956;SDS011;6543;48.836;10.092;2023-11-19T01:34:07;6.07;;;5.40;;
12956;SDS011;6543;48.836;10.092;2023-11-19T01:36:34;8.90;;;5.90;;
12956;SDS011;6543;48.836;10.092;2023-11-19T01:39:00;5.87;;;4.83;;
12956;SDS011;6543;48.836;10.092;2023-11-19T01:41:29;5.30;;;4.30;;
12956;SDS011;6543;48.836;10.092;2023-11-19T01:43:56;4.20;;;3.80;;
12956;SDS011;6543;48.836;10.092;2023-11-19T01:46:24;4.97;;;4.30;;
12956;SDS011;6543;48.836;10.092;2023-11-19T01:48:52;5.37;;;3.97;;
12956;SDS011;6543;48.836;10.092;2023-11-19T01:51:21;3.90;;;3.60;;
12956;SDS011;6543;48.836;10.092;2023-11-19T01:53:48;5.20;;;4.10;;
12956;SDS011;6543;48.836;10.092;2023-11-19T01:56:16;4.07;;;3.67;;
12956;SDS011;6543;48.836;10.092;2023-11-19T01:58:42;3.80;;;3.50;;
12956;SDS011;6543;48.836;10.092;2023-11-19T02:01:09;3.77;;;3.43;;
12956;SDS011;6543;48.836;10.092;2023-11-19T02:03:37;4.00;;;3.33;;
12956;SDS011;6543;48.836;10.092;2023-11-19T02:06:04;4.60;;;3.90;;
12956;SDS011;6543;48.836;10.092;2023-11-19T02:08:36;4.67;;;3.30;;
12956;SDS011;6543;48.836;10.092;2023-11-19T02:11:03;3.30;;;3.00;;
12956;SDS011;6543;48.836;10.092;2023-11-19T02:13:32;3.47;;;3.17;;
12956;SDS011;6543;48.836;10.092;2023-11-19T02:16:01;1.47;;;1.37;;
12956;SDS011;6543;48.836;10.092;2023-11-19T02:18:28;1.40;;;1.30;;
12956;SDS011;6543;48.836;10.092;2023-11-19T02:20:55;1.20;;;1.20;;
12956;SDS011;6543;48.836;10.092;2023-11-19T02:23:22;0.63;;;0.63;;
12956;SDS011;6543;48.836;10.092;2023-11-19T02:25:55;0.70;;;0.70;;
12956;SDS011;6543;48.836;10.092;2023-11-19T02:28:36;0.70;;;0.70;;
12956;SDS011;6543;48.836;10.092;2023-11-19T02:31:04;0.70;;;0.63;;
12956;SDS011;6543;48.836;10.092;2023-11-19T02:33:34;0.70;;;0.70;;
12956;SDS011;6543;48.836;10.092;2023-11-19T02:36:01;0.53;;;0.53;;
12956;SDS011;6543;48.836;10.092;2023-11-19T02:38:28;0.70;;;0.70;;
12956;SDS011;6543;48.836;10.092;2023-11-19T02:40:55;1.27;;;0.97;;
12956;SDS011;6543;48.836;10.092;2023-11-19T02:43:22;0.77;;;0.77;;
12956;SDS011;6543;48.836;10.092;2023-11-19T02:45:50;1.03;;;0.70;;
12956;SDS011;6543;48.836;10.092;2023-11-19T02:48:20;0.57;;;0.57;;
12956;SDS011;6543;48.836;10.092;2023-11-19T02:50:47;0.97;;;0.97;;
12956;SDS011;6543;48.836;10.092;2023-11-19T02:53:14;0.97;;;0.97;;
12956;SDS011;6543;48.836;10.092;2023-11-19T02:55:42;0.93;;;0.93;;
12956;SDS011;6543;48.836;10.092;2023-11-19T02:58:13;1.70;;;1.20;;
12956;SDS011;6543;48.836;10.092;2023-11-19T03:00:48;1.23;;;1.10;;
12956;SDS011;6543;48.836;10.092;2023-11-19T03:03:22;0.80;;;0.80;;
12956;SDS011;6543;48.836;10.092;2023-11-19T03:05:53;1.07;;;1.03;;
12956;SDS011;6543;48.836;10.092;2023-11-19T03:08:20;1.43;;;1.13;;
12956;SDS011;6543;48.836;10.092;2023-11-19T03:10:48;0.80;;;0.80;;
12956;SDS011;6543;48.836;10.092;2023-11-19T03:13:15;1.40;;;1.30;;
12956;SDS011;6543;48.836;10.092;2023-11-19T03:15:43;1.73;;;1.30;;
12956;SDS011;6543;48.836;10.092;2023-11-19T03:18:11;1.20;;;1.10;;
12956;SDS011;6543;48.836;10.092;2023-11-19T03:20:38;0.93;;;0.93;;
12956;SDS011;6543;48.836;10.092;2023-11-19T03:23:05;0.77;;;0.77;;
12956;SDS011;6543;48.836;10.092;2023-11-19T03:25:31;0.80;;;0.80;;
12956;SDS011;6543;48.836;10.092;2023-11-19T03:27:59;1.03;;;1.03;;
12956;SDS011;6543;48.836;10.092;2023-11-19T03:30:26;0.83;;;0.80;;
12956;SDS011;6543;48.836;10.092;2023-11-19T03:32:54;1.10;;;1.10;;
12956;SDS011;6543;48.836;10.092;2023-11-19T03:35:22;1.10;;;0.80;;
12956;SDS011;6543;48.836;10.092;2023-11-19T03:37:50;1.13;;;1.03;;
12956;SDS011;6543;48.836;10.092;2023-11-19T03:40:17;0.83;;;0.80;;
12956;SDS011;6543;48.836;10.092;2023-11-19T03:42:45;1.20;;;1.13;;
12956;SDS011;6543;48.836;10.092;2023-11-19T03:45:12;1.17;;;1.00;;
12956;SDS011;6543;48.836;10.092;2023-11-19T03:47:39;0.87;;;0.87;;
12956;SDS011;6543;48.836;10.092;2023-11-19T03:50:06;1.20;;;1.10;;
12956;SDS011;6543;48.836;10.092;2023-11-19T03:52:35;1.50;;;1.37;;
12956;SDS011;6543;48.836;10.092;2023-11-19T03:55:03;1.37;;;1.13;;
12956;SDS011;6543;48.836;10.092;2023-11-19T03:57:30;1.07;;;1.00;;
12956;SDS011;6543;48.836;10.092;2023-11-19T03:59:57;1.10;;;1.10;;
12956;SDS011;6543;48.836;10.092;2023-11-19T04:02:24;1.00;;;0.90;;
12956;SDS011;6543;48.836;10.092;2023-11-19T04:04:53;0.97;;;0.90;;
12956;SDS011;6543;48.836;10.092;2023-11-19T04:07:21;0.93;;;0.93;;
12956;SDS011;6543;48.836;10.092;2023-11-19T04:09:49;0.77;;;0.77;;
12956;SDS011;6543;48.836;10.092;2023-11-19T04:12:16;0.63;;;0.63;;
12956;SDS011;6543;48.836;10.092;2023-11-19T04:14:42;0.63;;;0.60;;
12956;SDS011;6543;48.836;10.092;2023-11-19T04:17:09;0.60;;;0.60;;
12956;SDS011;6543;48.836;10.092;2023-11-19T04:19:36;0.57;;;0.57;;
12956;SDS011;6543;48.836;10.092;2023-11-19T04:22:06;0.50;;;0.50;;
12956;SDS011;6543;48.836;10.092;2023-11-19T04:24:33;0.73;;;0.50;;
12956;SDS011;6543;48.836;10.092;2023-11-19T04:27:01;1.00;;;0.43;;
12956;SDS011;6543;48.836;10.092;2023-11-19T04:29:29;0.40;;;0.40;;
12956;SDS011;6543;48.836;10.092;2023-11-19T04:31:56;0.30;;;0.20;;
12956;SDS011;6543;48.836;10.092;2023-11-19T04:34:23;0.30;;;0.30;;
12956;SDS011;6543;48.836;10.092;2023-11-19T04:36:51;0.30;;;0.30;;
12956;SDS011;6543;48.836;10.092;2023-11-19T04:39:17;0.30;;;0.30;;
12956;SDS011;6543;48.836;10.092;2023-11-19T04:41:48;0.50;;;0.30;;
12956;SDS011;6543;48.836;10.092;2023-11-19T04:44:16;0.03;;;0.03;;
12956;SDS011;6543;48.836;10.092;2023-11-19T04:46:43;0.20;;;0.20;;
12956;SDS011;6543;48.836;10.092;2023-11-19T04:49:10;0.40;;;0.27;;
12956;SDS011;6543;48.836;10.092;2023-11-19T04:51:38;0.40;;;0.23;;
12956;SDS011;6543;48.836;10.092;2023-11-19T04:54:06;0.83;;;0.23;;
12956;SDS011;6543;48.836;10.092;2023-11-19T04:56:34;0.20;;;0.20;;
12956;SDS011;6543;48.836;10.092;2023-11-19T04:59:01;0.33;;;0.33;;
12956;SDS011;6543;48.836;10.092;2023-11-19T05:01:29;0.63;;;0.30;;
12956;SDS011;6543;48.836;10.092;2023-11-19T05:03:56;0.70;;;0.37;;
12956;SDS011;6543;48.836;10.092;2023-11-19T05:06:25;0.23;;;0.23;;
12956;SDS011;6543;48.836;10.092;2023-11-19T05:08:53;0.30;;;0.20;;
12956;SDS011;6543;48.836;10.092;2023-11-19T05:11:20;0.70;;;0.20;;
12956;SDS011;6543;48.836;10.092;2023-11-19T05:13:47;0.40;;;0.30;;
12956;SDS011;6543;48.836;10.092;2023-11-19T05:16:14;0.30;;;0.30;;
12956;SDS011;6543;48.836;10.092;2023-11-19T05:18:43;0.40;;;0.23;;
12956;SDS011;6543;48.836;10.092;2023-11-19T05:21:11;0.80;;;0.20;;
12956;SDS011;6543;48.836;10.092;2023-11-19T05:23:37;1.50;;;0.30;;
12956;SDS011;6543;48.836;10.092;2023-11-19T05:26:06;0.30;;;0.30;;
12956;SDS011;6543;48.836;10.092;2023-11-19T05:28:33;0.40;;;0.27;;
12956;SDS011;6543;48.836;10.092;2023-11-19T05:31:00;0.20;;;0.20;;
12956;SDS011;6543;48.836;10.092;2023-11-19T05:33:27;0.30;;;0.30;;
12956;SDS011;6543;48.836;10.092;2023-11-19T05:35:55;0.20;;;0.20;;
12956;SDS011;6543;48.836;10.092;2023-11-19T05:38:22;0.30;;;0.30;;
12956;SDS011;6543;48.836;10.092;2023-11-19T05:40:49;0.40;;;0.10;;
12956;SDS011;6543;48.836;10.092;2023-11-19T05:43:16;0.63;;;0.20;;
12956;SDS011;6543;48.836;10.092;2023-11-19T05:45:42;0.53;;;0.53;;
12956;SDS011;6543;48.836;10.092;2023-11-19T05:48:09;0.40;;;0.33;;
12956;SDS011;6543;48.836;10.092;2023-11-19T05:50:36;0.40;;;0.40;;
12956;SDS011;6543;48.836;10.092;2023-11-19T05:53:04;0.30;;;0.30;;
12956;SDS011;6543;48.836;10.092;2023-11-19T05:55:35;0.87;;;0.37;;
12956;SDS011;6543;48.836;10.092;2023-11-19T05:58:02;0.40;;;0.37;;
12956;SDS011;6543;48.836;10.092;2023-11-19T06:00:31;0.23;;;0.23;;
12956;SDS011;6543;48.836;10.092;2023-11-19T06:03:00;1.07;;;0.40;;
12956;SDS011;6543;48.836;10.092;2023-11-19T06:05:27;0.33;;;0.33;;
12956;SDS011;6543;48.836;10.092;2023-11-19T06:07:54;0.10;;;0.10;;
12956;SDS011;6543;48.836;10.092;2023-11-19T06:10:24;0.37;;;0.37;;
12956;SDS011;6543;48.836;10.092;2023-11-19T06:12:55;0.60;;;0.60;;
12956;SDS011;6543;48.836;10.092;2023-11-19T06:15:24;0.60;;;0.50;;
12956;SDS011;6543;48.836;10.092;2023-11-19T06:17:51;0.40;;;0.40;;
12956;SDS011;6543;48.836;10.092;2023-11-19T06:20:18;0.73;;;0.50;;
12956;SDS011;6543;48.836;10.092;2023-11-19T06:22:45;0.40;;;0.40;;
12956;SDS011;6543;48.836;10.092;2023-11-19T06:25:12;0.50;;;0.50;;
12956;SDS011;6543;48.836;10.092;2023-11-19T06:27:42;1.60;;;0.67;;
12956;SDS011;6543;48.836;10.092;2023-11-19T06:30:09;0.30;;;0.30;;
12956;SDS011;6543;48.836;10.092;2023-11-19T06:32:36;0.50;;;0.50;;
12956;SDS011;6543;48.836;10.092;2023-11-19T06:35:03;1.30;;;0.47;;
12956;SDS011;6543;48.836;10.092;2023-11-19T06:37:31;0.60;;;0.60;;
12956;SDS011;6543;48.836;10.092;2023-11-19T06:39:58;0.30;;;0.30;;
12956;SDS011;6543;48.836;10.092;2023-11-19T06:42:28;0.30;;;0.30;;
12956;SDS011;6543;48.836;10.092;2023-11-19T06:44:56;0.33;;;0.33;;
12956;SDS011;6543;48.836;10.092;2023-11-19T06:47:25;0.33;;;0.33;;
12956;SDS011;6543;48.836;10.092;2023-11-19T06:49:52;0.43;;;0.33;;
12956;SDS011;6543;48.836;10.092;2023-11-19T06:52:19;0.33;;;0.33;;
12956;SDS011;6543;48.836;10.092;2023-11-19T06:54:46;0.30;;;0.30;;
12956;SDS011;6543;48.836;10.092;2023-11-19T06:57:13;0.40;;;0.20;;
12956;SDS011;6543;48.836;10.092;2023-11-19T06:59:40;0.20;;;0.20;;
12956;SDS011;6543;48.836;10.092;2023-11-19T07:02:09;0.20;;;0.20;;
12956;SDS011;6543;48.836;10.092;2023-11-19T07:04:36;0.30;;;0.20;;
12956;SDS011;6543;48.836;10.092;2023-11-19T07:07:03;0.97;;;0.27;;
12956;SDS011;6543;48.836;10.092;2023-11-19T07:09:31;1.43;;;0.20;;
12956;SDS011;6543;48.836;10.092;2023-11-19T07:12:02;0.30;;;0.30;;
12956;SDS011;6543;48.836;10.092;2023-11-19T07:14:30;0.47;;;0.20;;
12956;SDS011;6543;48.836;10.092;2023-11-19T07:16:56;0.20;;;0.20;;
12956;SDS011;6543;48.836;10.092;2023-11-19T07:19:24;0.10;;;0.10;;
12956;SDS011;6543;48.836;10.092;2023-11-19T07:21:51;4.40;;;0.70;;
12956;SDS011;6543;48.836;10.092;2023-11-19T07:24:19;0.30;;;0.30;;
12956;SDS011;6543;48.836;10.092;2023-11-19T07:26:46;0.37;;;0.37;;
12956;SDS011;6543;48.836;10.092;2023-11-19T07:29:14;0.40;;;0.40;;
12956;SDS011;6543;48.836;10.092;2023-11-19T07:31:41;0.60;;;0.57;;
12956;SDS011;6543;48.836;10.092;2023-11-19T07:34:09;0.30;;;0.20;;
12956;SDS011;6543;48.836;10.092;2023-11-19T07:36:38;0.40;;;0.40;;
12956;SDS011;6543;48.836;10.092;2023-11-19T07:39:05;0.37;;;0.37;;
12956;SDS011;6543;48.836;10.092;2023-11-19T07:41:32;1.33;;;0.10;;
12956;SDS011;6543;48.836;10.092;2023-11-19T07:43:59;0.33;;;0.20;;
12956;SDS011;6543;48.836;10.092;2023-11-19T07:46:26;0.30;;;0.30;;
12956;SDS011;6543;48.836;10.092;2023-11-19T07:48:53;0.87;;;0.80;;
12956;SDS011;6543;48.836;10.092;2023-11-19T07:51:20;0.70;;;0.70;;
12956;SDS011;6543;48.836;10.092;2023-11-19T07:53:48;1.07;;;0.40;;
12956;SDS011;6543;48.836;10.092;2023-11-19T07:56:15;1.10;;;1.00;;
12956;SDS011;6543;48.836;10.092;2023-11-19T07:58:42;0.70;;;0.70;;
12956;SDS011;6543;48.836;10.092;2023-11-19T08:01:08;0.40;;;0.10;;
12956;SDS011;6543;48.836;10.092;2023-11-19T08:03:35;0.67;;;0.30;;
12956;SDS011;6543;48.836;10.092;2023-11-19T08:06:03;1.13;;;0.30;;
12956;SDS011;6543;48.836;10.092;2023-11-19T08:08:30;0.67;;;0.30;;
12956;SDS011;6543;48.836;10.092;2023-11-19T08:10:59;0.70;;;0.30;;
12956;SDS011;6543;48.836;10.092;2023-11-19T08:13:26;0.17;;;0.17;;
12956;SDS011;6543;48.836;10.092;2023-11-19T08:15:53;1.13;;;0.03;;
12956;SDS011;6543;48.836;10.092;2023-11-19T08:18:20;0.10;;;0.10;;
12956;SDS011;6543;48.836;10.092;2023-11-19T08:20:47;0.30;;;0.30;;
12956;SDS011;6543;48.836;10.092;2023-11-19T08:23:18;0.30;;;0.10;;
12956;SDS011;6543;48.836;10.092;2023-11-19T08:25:45;0.57;;;0.30;;
12956;SDS011;6543;48.836;10.092;2023-11-19T08:28:14;0.23;;;0.20;;
12956;SDS011;6543;48.836;10.092;2023-11-19T08:30:40;0.20;;;0.17;;
12956;SDS011;6543;48.836;10.092;2023-11-19T08:33:09;0.70;;;0.30;;
12956;SDS011;6543;48.836;10.092;2023-11-19T08:35:36;1.13;;;0.60;;
12956;SDS011;6543;48.836;10.092;2023-11-19T08:38:03;0.63;;;0.30;;
12956;SDS011;6543;48.836;10.092;2023-11-19T08:40:30;0.53;;;0.20;;
12956;SDS011;6543;48.836;10.092;2023-11-19T08:42:56;0.10;;;0.10;;
12956;SDS011;6543;48.836;10.092;2023-11-19T08:45:25;0.20;;;0.20;;
12956;SDS011;6543;48.836;10.092;2023-11-19T08:47:51;0.10;;;0.10;;
12956;SDS011;6543;48.836;10.092;2023-11-19T08:50:18;0.10;;;0.10;;
12956;SDS011;6543;48.836;10.092;2023-11-19T08:52:45;0.37;;;0.37;;
12956;SDS011;6543;48.836;10.092;2023-11-19T08:55:12;0.30;;;0.17;;
12956;SDS011;6543;48.836;10.092;2023-11-19T08:57:39;0.83;;;0.20;;
12956;SDS011;6543;48.836;10.092;2023-11-19T09:00:06;1.37;;;0.10;;
12956;SDS011;6543;48.836;10.092;2023-11-19T09:02:35;0.30;;;0.20;;
12956;SDS011;6543;48.836;10.092;2023-11-19T09:05:03;0.10;;;0.10;;
12956;SDS011;6543;48.836;10.092;2023-11-19T09:07:30;0.00;;;0.00;;
12956;SDS011;6543;48.836;10.092;2023-11-19T09:09:57;0.20;;;0.20;;
12956;SDS011;6543;48.836;10.092;2023-11-19T09:12:24;0.43;;;0.30;;
12956;SDS011;6543;48.836;10.092;2023-11-19T09:14:51;0.30;;;0.13;;
12956;SDS011;6543;48.836;10.092;2023-11-19T09:17:18;0.53;;;0.00;;
12956;SDS011;6543;48.836;10.092;2023-11-19T09:19:46;0.30;;;0.30;;
12956;SDS011;6543;48.836;10.092;2023-11-19T09:22:13;0.20;;;0.13;;
12956;SDS011;6543;48.836;10.092;2023-11-19T09:24:39;0.13;;;0.13;;
12956;SDS011;6543;48.836;10.092;2023-11-19T09:27:06;0.43;;;0.43;;
12956;SDS011;6543;48.836;10.092;2023-11-19T09:29:33;0.10;;;0.10;;
12956;SDS011;6543;48.836;10.092;2023-11-19T09:32:00;0.70;;;0.20;;
12956;SDS011;6543;48.836;10.092;2023-11-19T09:34:27;0.33;;;0.30;;
12956;SDS011;6543;48.836;10.092;2023-11-19T09:36:55;0.30;;;0.30;;
12956;SDS011;6543;48.836;10.092;2023-11-19T09:39:22;0.60;;;0.10;;
12956;SDS011;6543;48.836;10.092;2023-11-19T09:41:50;0.20;;;0.20;;
12956;SDS011;6543;48.836;10.092;2023-11-19T09:44:17;0.27;;;0.27;;
12956;SDS011;6543;48.836;10.092;2023-11-19T09:46:44;0.30;;;0.20;;
12956;SDS011;6543;48.836;10.092;2023-11-19T09:49:14;0.20;;;0.20;;
12956;SDS011;6543;48.836;10.092;2023-11-19T09:51:45;2.17;;;0.10;;
12956;SDS011;6543;48.836;10.092;2023-11-19T09:54:13;0.30;;;0.23;;
12956;SDS011;6543;48.836;10.092;2023-11-19T09:56:40;1.50;;;0.57;;
12956;SDS011;6543;48.836;10.092;2023-11-19T09:59:07;1.00;;;0.33;;
12956;SDS011;6543;48.836;10.092;2023-11-19T10:01:37;0.30;;;0.20;;
12956;SDS011;6543;48.836;10.092;2023-11-19T10:04:05;1.23;;;0.40;;
12956;SDS011;6543;48.836;10.092;2023-11-19T10:06:33;0.40;;;0.40;;
12956;SDS011;6543;48.836;10.092;2023-11-19T10:08:59;2.63;;;0.43;;
12956;SDS011;6543;48.836;10.092;2023-11-19T10:11:28;0.60;;;0.60;;
12956;SDS011;6543;48.836;10.092;2023-11-19T10:13:54;0.33;;;0.20;;
12956;SDS011;6543;48.836;10.092;2023-11-19T10:16:27;1.10;;;1.00;;
12956;SDS011;6543;48.836;10.092;2023-11-19T10:18:55;0.80;;;0.50;;
12956;SDS011;6543;48.836;10.092;2023-11-19T10:21:22;0.40;;;0.40;;
12956;SDS011;6543;48.836;10.092;2023-11-19T10:23:50;0.50;;;0.50;;
12956;SDS011;6543;48.836;10.092;2023-11-19T10:26:18;0.50;;;0.50;;
12956;SDS011;6543;48.836;10.092;2023-11-19T10:28:47;0.17;;;0.17;;
12956;SDS011;6543;48.836;10.092;2023-11-19T10:31:14;0.70;;;0.70;;
12956;SDS011;6543;48.836;10.092;2023-11-19T10:33:42;0.60;;;0.50;;
12956;SDS011;6543;48.836;10.092;2023-11-19T10:36:10;2.23;;;0.67;;
12956;SDS011;6543;48.836;10.092;2023-11-19T10:38:37;2.17;;;0.93;;
12956;SDS011;6543;48.836;10.092;2023-11-19T10:41:04;0.30;;;0.30;;
12956;SDS011;6543;48.836;10.092;2023-11-19T10:43:31;0.60;;;0.50;;
12956;SDS011;6543;48.836;10.092;2023-11-19T10:46:11;1.13;;;0.83;;
12956;SDS011;6543;48.836;10.092;2023-11-19T10:48:39;0.97;;;0.40;;
12956;SDS011;6543;48.836;10.092;2023-11-19T10:51:06;0.50;;;0.43;;
12956;SDS011;6543;48.836;10.092;2023-11-19T10:53:36;0.40;;;0.40;;
12956;SDS011;6543;48.836;10.092;2023-11-19T10:56:04;0.20;;;0.20;;
12956;SDS011;6543;48.836;10.092;2023-11-19T10:58:35;0.87;;;0.40;;
12956;SDS011;6543;48.836;10.092;2023-11-19T11:01:04;2.10;;;0.30;;
12956;SDS011;6543;48.836;10.092;2023-11-19T11:03:40;1.50;;;0.30;;
12956;SDS011;6543;48.836;10.092;2023-11-19T11:06:07;0.40;;;0.40;;
12956;SDS011;6543;48.836;10.092;2023-11-19T11:08:36;0.70;;;0.50;;
12956;SDS011;6543;48.836;10.092;2023-11-19T11:11:04;1.53;;;0.57;;
12956;SDS011;6543;48.836;10.092;2023-11-19T11:13:32;1.03;;;0.43;;
12956;SDS011;6543;48.836;10.092;2023-11-19T11:16:00;0.80;;;0.20;;
12956;SDS011;6543;48.836;10.092;2023-11-19T11:18:30;0.77;;;0.30;;
12956;SDS011;6543;48.836;10.092;2023-11-19T11:20:58;0.30;;;0.30;;
12956;SDS011;6543;48.836;10.092;2023-11-19T11:23:37;0.40;;;0.40;;
12956;SDS011;6543;48.836;10.092;2023-11-19T11:29:26;0.50;;;0.33;;
12956;SDS011;6543;48.836;10.092;2023-11-19T11:32:03;0.67;;;0.40;;
12956;SDS011;6543;48.836;10.092;2023-11-19T11:34:55;0.53;;;0.30;;
12956;SDS011;6543;48.836;10.092;2023-11-19T11:37:34;0.60;;;0.40;;
12956;SDS011;6543;48.836;10.092;2023-11-19T11:40:05;0.73;;;0.20;;
12956;SDS011;6543;48.836;10.092;2023-11-19T11:42:35;1.53;;;0.30;;
12956;SDS011;6543;48.836;10.092;2023-11-19T11:45:04;0.20;;;0.20;;
12956;SDS011;6543;48.836;10.092;2023-11-19T11:50:53;0.60;;;0.50;;
12956;SDS011;6543;48.836;10.092;2023-11-19T11:53:23;0.43;;;0.40;;
12956;SDS011;6543;48.836;10.092;2023-11-19T11:55:56;0.40;;;0.40;;
12956;SDS011;6543;48.836;10.092;2023-11-19T11:58:31;0.93;;;0.70;;
12956;SDS011;6543;48.836;10.092;2023-11-19T12:01:01;0.30;;;0.30;;
12956;SDS011;6543;48.836;10.092;2023-11-19T12:03:31;1.50;;;0.67;;
12956;SDS011;6543;48.836;10.092;2023-11-19T12:05:59;0.80;;;0.30;;
12956;SDS011;6543;48.836;10.092;2023-11-19T12:08:27;0.57;;;0.40;;
12956;SDS011;6543;48.836;10.092;2023-11-19T12:10:56;0.40;;;0.13;;
12956;SDS011;6543;48.836;10.092;2023-11-19T12:13:47;0.40;;;0.30;;
12956;SDS011;6543;48.836;10.092;2023-11-19T12:16:23;1.87;;;0.67;;
12956;SDS011;6543;48.836;10.092;2023-11-19T12:18:52;6.20;;;1.10;;
12956;SDS011;6543;48.836;10.092;2023-11-19T12:21:30;2.70;;;0.40;;
12956;SDS011;6543;48.836;10.092;2023-11-19T12:23:58;1.67;;;0.30;;
12956;SDS011;6543;48.836;10.092;2023-11-19T12:26:31;0.97;;;0.30;;
12956;SDS011;6543;48.836;10.092;2023-11-19T12:28:59;0.80;;;0.50;;
12956;SDS011;6543;48.836;10.092;2023-11-19T12:31:28;4.03;;;0.70;;
12956;SDS011;6543;48.836;10.092;2023-11-19T12:33:55;0.40;;;0.40;;
12956;SDS011;6543;48.836;10.092;2023-11-19T12:36:22;0.63;;;0.57;;
12956;SDS011;6543;48.836;10.092;2023-11-19T12:38:50;1.70;;;0.50;;
12956;SDS011;6543;48.836;10.092;2023-11-19T12:41:17;0.63;;;0.53;;
12956;SDS011;6543;48.836;10.092;2023-11-19T12:43:47;0.80;;;0.50;;
12956;SDS011;6543;48.836;10.092;2023-11-19T12:46:17;2.93;;;0.90;;
12956;SDS011;6543;48.836;10.092;2023-11-19T12:48:45;2.47;;;0.67;;
12956;SDS011;6543;48.836;10.092;2023-11-19T12:51:12;1.63;;;0.70;;
12956;SDS011;6543;48.836;10.092;2023-11-19T12:53:47;1.57;;;0.50;;
12956;SDS011;6543;48.836;10.092;2023-11-19T12:56:16;0.50;;;0.40;;
12956;SDS011;6543;48.836;10.092;2023-11-19T12:58:43;1.10;;;0.60;;
12956;SDS011;6543;48.836;10.092;2023-11-19T13:01:10;0.70;;;0.70;;
12956;SDS011;6543;48.836;10.092;2023-11-19T13:03:42;1.23;;;0.50;;
12956;SDS011;6543;48.836;10.092;2023-11-19T13:06:09;0.30;;;0.30;;
12956;SDS011;6543;48.836;10.092;2023-11-19T13:08:38;0.30;;;0.30;;
12956;SDS011;6543;48.836;10.092;2023-11-19T13:11:06;1.50;;;0.50;;
12956;SDS011;6543;48.836;10.092;2023-11-19T13:16:23;4.03;;;0.60;;
12956;SDS011;6543;48.836;10.092;2023-11-19T13:18:50;1.33;;;0.60;;
12956;SDS011;6543;48.836;10.092;2023-11-19T13:21:17;1.47;;;0.50;;
12956;SDS011;6543;48.836;10.092;2023-11-19T13:23:44;3.53;;;0.87;;
12956;SDS011;6543;48.836;10.092;2023-11-19T13:26:11;0.50;;;0.50;;
12956;SDS011;6543;48.836;10.092;2023-11-19T13:28:38;0.60;;;0.40;;
12956;SDS011;6543;48.836;10.092;2023-11-19T13:31:06;1.03;;;0.40;;
12956;SDS011;6543;48.836;10.092;2023-11-19T13:33:33;0.90;;;0.33;;
12956;SDS011;6543;48.836;10.092;2023-11-19T13:36:01;2.30;;;1.00;;
12956;SDS011;6543;48.836;10.092;2023-11-19T13:38:30;0.40;;;0.40;;
12956;SDS011;6543;48.836;10.092;2023-11-19T13:40:58;1.23;;;0.67;;
12956;SDS011;6543;48.836;10.092;2023-11-19T13:43:25;1.63;;;0.60;;
12956;SDS011;6543;48.836;10.092;2023-11-19T13:45:53;0.67;;;0.67;;
12956;SDS011;6543;48.836;10.092;2023-11-19T13:48:21;1.87;;;0.70;;
12956;SDS011;6543;48.836;10.092;2023-11-19T13:50:48;1.03;;;0.73;;
12956;SDS011;6543;48.836;10.092;2023-11-19T13:53:18;7.40;;;0.73;;
12956;SDS011;6543;48.836;10.092;2023-11-19T13:55:45;2.30;;;0.40;;
12956;SDS011;6543;48.836;10.092;2023-11-19T13:58:12;1.60;;;0.47;;
12956;SDS011;6543;48.836;10.092;2023-11-19T14:00:39;1.33;;;0.30;;
12956;SDS011;6543;48.836;10.092;2023-11-19T14:03:07;0.37;;;0.30;;
12956;SDS011;6543;48.836;10.092;2023-11-19T14:05:36;0.40;;;0.30;;
12956;SDS011;6543;48.836;10.092;2023-11-19T14:08:03;0.73;;;0.30;;
12956;SDS011;6543;48.836;10.092;2023-11-19T14:10:36;0.60;;;0.37;;
12956;SDS011;6543;48.836;10.092;2023-11-19T14:13:05;1.13;;;0.87;;
12956;SDS011;6543;48.836;10.092;2023-11-19T14:15:32;1.70;;;0.50;;
12956;SDS011;6543;48.836;10.092;2023-11-19T14:17:59;4.00;;;0.50;;
12956;SDS011;6543;48.836;10.092;2023-11-19T14:20:26;0.83;;;0.43;;
12956;SDS011;6543;48.836;10.092;2023-11-19T14:22:54;1.40;;;0.50;;
12956;SDS011;6543;48.836;10.092;2023-11-19T14:25:21;2.30;;;0.50;;
12956;SDS011;6543;48.836;10.092;2023-11-19T14:27:48;1.17;;;0.63;;
12956;SDS011;6543;48.836;10.092;2023-11-19T14:30:15;0.30;;;0.30;;
12956;SDS011;6543;48.836;10.092;2023-11-19T14:32:43;0.50;;;0.33;;
12956;SDS011;6543;48.836;10.092;2023-11-19T14:35:11;0.97;;;0.67;;
12956;SDS011;6543;48.836;10.092;2023-11-19T14:37:38;2.53;;;0.60;;
12956;SDS011;6543;48.836;10.092;2023-11-19T14:40:07;1.47;;;0.70;;
12956;SDS011;6543;48.836;10.092;2023-11-19T14:42:36;2.17;;;0.40;;
12956;SDS011;6543;48.836;10.092;2023-11-19T14:45:04;0.90;;;0.43;;
12956;SDS011;6543;48.836;10.092;2023-11-19T14:47:32;3.00;;;0.57;;
12956;SDS011;6543;48.836;10.092;2023-11-19T14:49:58;1.53;;;0.67;;
12956;SDS011;6543;48.836;10.092;2023-11-19T14:52:25;2.13;;;0.63;;
12956;SDS011;6543;48.836;10.092;2023-11-19T14:54:52;2.17;;;0.70;;
12956;SDS011;6543;48.836;10.092;2023-11-19T14:57:22;1.77;;;0.80;;
12956;SDS011;6543;48.836;10.092;2023-11-19T14:59:49;0.90;;;0.57;;
12956;SDS011;6543;48.836;10.092;2023-11-19T15:02:19;4.80;;;0.80;;